createdAt,value
2023-01-02T00:02:08.271Z,4.25
2023-01-02T00:07:10.200Z,3.38
2023-01-02T00:12:11.832Z,3.80
2023-01-02T00:17:13.467Z,3.28
2023-01-02T00:22:15.153Z,4.18
2023-01-02T00:27:17.667Z,3.95
2023-01-02T00:32:19.432Z,3.20
2023-01-02T00:37:21.249Z,4.22
2023-01-02T00:42:22.903Z,3.63
2023-01-02T00:47:24.779Z,3.65
2023-01-02T00:52:26.391Z,3.95
2023-01-02T00:57:28.537Z,3.33
2023-01-02T01:02:31.899Z,3.38
2023-01-02T01:07:33.997Z,3.35
2023-01-02T01:28:12.224Z,3.47
2023-01-02T01:33:13.726Z,3.17
2023-01-02T01:38:15.220Z,2.50
2023-01-02T01:43:16.732Z,2.70
2023-01-02T01:48:18.353Z,2.55
2023-01-02T01:53:22.497Z,2.78
2023-01-02T01:58:28.828Z,2.83
2023-01-02T02:03:33.211Z,3.25
2023-01-02T02:08:37.549Z,2.95
2023-01-02T02:13:39.353Z,4.22
2023-01-02T02:19:18.063Z,2.65
2023-01-02T02:24:58.130Z,2.92
2023-01-02T02:30:14.374Z,3.03
2023-01-02T02:35:30.519Z,2.30
2023-01-02T02:40:59.806Z,2.95
2023-01-02T02:46:15.360Z,2.85
2023-01-02T02:51:23.950Z,3.13
2023-01-02T02:56:28.346Z,3.40
2023-01-02T03:01:31.233Z,2.80
2023-01-02T03:06:32.793Z,2.72
2023-01-02T03:11:48.143Z,3.67
2023-01-02T03:17:00.824Z,2.80
2023-01-02T03:22:17.142Z,3.05
2023-01-02T03:27:22.790Z,2.95
2023-01-02T03:32:35.389Z,3.00
2023-01-02T03:37:43.321Z,3.05
2023-01-02T03:42:55.343Z,2.30
2023-01-02T03:48:03.207Z,3.00
2023-01-02T03:53:04.706Z,2.70
2023-01-02T03:58:23.995Z,3.00
2023-01-02T04:03:34.968Z,2.47
2023-01-02T04:08:44.634Z,2.92
2023-01-02T04:13:51.895Z,2.65
2023-01-02T04:19:31.667Z,2.30
2023-01-02T04:24:38.795Z,2.50
2023-01-02T04:29:40.999Z,2.30
2023-01-02T04:34:44.896Z,2.58
2023-01-02T04:39:46.446Z,3.08
2023-01-02T04:44:47.904Z,2.60
2023-01-02T04:49:49.340Z,2.78
2023-01-02T04:54:50.848Z,3.10
2023-01-02T04:59:52.336Z,2.78
2023-01-02T05:04:53.791Z,2.55
2023-01-02T05:09:55.275Z,2.47
2023-01-02T05:14:56.764Z,2.40
2023-01-02T05:19:58.278Z,2.25
2023-01-02T05:24:59.774Z,2.15
2023-01-02T05:30:01.322Z,2.00
2023-01-02T05:35:03.188Z,2.30
2023-01-02T05:40:05.175Z,2.33
2023-01-02T05:45:07.306Z,2.30
2023-01-02T05:50:08.954Z,2.42
2023-01-02T05:55:10.409Z,2.72
2023-01-02T06:00:12.719Z,2.20
2023-01-02T06:05:17.238Z,2.92
2023-01-02T06:10:18.866Z,2.92
2023-01-02T06:15:21.036Z,3.25
2023-01-02T06:20:22.803Z,3.15
2023-01-02T06:25:24.397Z,2.70
2023-01-02T06:30:26.130Z,4.20
2023-01-02T06:35:27.726Z,2.95
2023-01-02T06:40:29.352Z,3.25
2023-01-02T06:45:30.950Z,6.82
2023-01-02T06:50:35.146Z,4.13
2023-01-02T06:55:37.061Z,3.85
2023-01-02T07:00:38.890Z,4.15
2023-01-02T07:05:40.492Z,3.08
2023-01-02T07:10:42.144Z,3.42
2023-01-02T07:15:43.879Z,3.53
2023-01-02T07:20:53.883Z,3.15
2023-01-02T07:25:57.823Z,2.28
2023-01-02T07:31:04.079Z,2.70
2023-01-02T07:36:07.956Z,2.30
2023-01-02T07:41:16.184Z,1.95
2023-01-02T07:46:19.669Z,3.42
2023-01-02T07:51:27.071Z,2.30
2023-01-02T07:56:30.098Z,2.85
2023-01-02T08:01:31.810Z,2.80
2023-01-02T08:06:33.856Z,2.30
2023-01-02T08:11:35.432Z,2.03
2023-01-02T08:16:37.199Z,2.40
2023-01-02T08:21:38.775Z,2.88
2023-01-02T08:26:40.467Z,2.40
2023-01-02T08:31:44.092Z,2.28
2023-01-02T08:36:45.890Z,2.40
2023-01-02T08:41:47.505Z,3.60
2023-01-02T08:46:49.073Z,3.08
2023-01-02T08:51:50.674Z,2.60
2023-01-02T08:56:52.414Z,2.92
2023-01-02T09:01:54.458Z,2.13
2023-01-02T09:06:56.061Z,2.38
2023-01-02T09:11:57.603Z,2.83
2023-01-02T09:16:59.337Z,2.90
2023-01-02T09:22:00.970Z,3.45
2023-01-02T09:27:02.571Z,3.25
2023-01-02T09:32:04.704Z,2.63
2023-01-02T09:37:06.180Z,2.90
2023-01-02T09:42:14.356Z,3.47
2023-01-02T09:47:23.696Z,4.32
2023-01-02T09:52:28.862Z,2.85
2023-01-02T09:57:43.319Z,2.80
2023-01-02T10:02:47.722Z,2.78
2023-01-02T10:08:11.520Z,2.83
2023-01-02T10:13:21.247Z,3.10
2023-01-02T10:18:38.247Z,3.03
2023-01-02T10:23:45.313Z,2.97
2023-01-02T10:28:46.884Z,2.72
2023-01-02T10:33:55.698Z,4.05
2023-01-02T10:39:03.688Z,3.45
2023-01-02T10:44:19.395Z,3.35
2023-01-02T10:49:23.610Z,3.35
2023-01-02T10:54:25.179Z,3.22
2023-01-02T10:59:28.861Z,2.88
2023-01-02T11:04:30.866Z,3.05
2023-01-02T11:09:34.458Z,3.08
2023-01-02T11:14:37.777Z,2.80
2023-01-02T11:19:51.470Z,3.30
2023-01-02T11:25:00.754Z,4.13
2023-01-02T11:30:05.812Z,2.00
2023-01-02T11:35:37.651Z,2.03
2023-01-02T11:40:51.930Z,2.65
2023-01-02T11:45:54.419Z,2.55
2023-01-02T11:50:56.036Z,3.13
2023-01-02T11:56:37.295Z,2.83
2023-01-02T12:01:57.554Z,2.88
2023-01-02T12:07:23.253Z,3.13
2023-01-02T12:12:40.933Z,3.38
2023-01-02T12:18:06.737Z,3.03
2023-01-02T12:23:35.226Z,2.72
2023-01-02T12:28:50.000Z,2.60
2023-01-02T12:34:29.627Z,2.10
2023-01-02T12:39:46.229Z,2.40
2023-01-02T12:44:52.328Z,2.63
2023-01-02T12:50:27.897Z,1.48
2023-01-02T12:55:51.372Z,1.95
2023-01-02T13:01:26.179Z,1.33
2023-01-02T13:06:45.405Z,1.52
2023-01-02T13:12:21.960Z,1.30
2023-01-02T13:17:44.965Z,1.35
2023-01-02T13:23:03.442Z,1.50
2023-01-02T13:28:05.071Z,1.38
2023-01-02T13:33:36.135Z,2.20
2023-01-02T13:38:37.700Z,1.33
2023-01-02T13:43:39.466Z,1.23
2023-01-02T13:48:46.061Z,1.50
2023-01-02T13:53:50.634Z,1.40
2023-01-02T13:58:57.852Z,1.25
2023-01-02T14:04:11.560Z,1.23
2023-01-02T14:09:20.105Z,2.22
2023-01-02T14:14:40.223Z,1.87
2023-01-02T14:19:42.118Z,1.08
2023-01-02T14:24:52.735Z,1.20
2023-01-02T14:29:59.740Z,0.98
2023-01-02T14:35:04.907Z,1.10
2023-01-02T14:40:34.515Z,1.25
2023-01-02T14:45:45.987Z,1.10
2023-01-02T14:50:49.203Z,1.65
2023-01-02T14:55:55.932Z,1.50
2023-01-02T15:01:04.238Z,1.42
2023-01-02T15:06:34.732Z,1.20
2023-01-02T15:11:36.328Z,1.60
2023-01-02T15:16:46.736Z,1.40
2023-01-02T15:21:48.416Z,1.35
2023-01-02T15:26:50.304Z,1.48
2023-01-02T15:31:53.199Z,1.58
2023-01-02T15:36:55.891Z,1.50
2023-01-02T15:41:58.039Z,1.60
2023-01-02T15:47:00.259Z,2.13
2023-01-02T15:52:03.555Z,1.60
2023-01-02T15:57:12.357Z,1.40
2023-01-02T16:02:35.092Z,1.48
2023-01-02T16:07:37.165Z,1.52
2023-01-02T16:12:39.469Z,1.67
2023-01-02T16:17:45.989Z,1.55
2023-01-02T16:22:59.463Z,1.67
2023-01-02T16:28:03.956Z,1.50
2023-01-02T16:33:28.385Z,1.83
2023-01-02T16:38:31.199Z,1.75
2023-01-02T16:43:38.042Z,1.80
2023-01-02T16:48:44.703Z,3.92
2023-01-02T16:53:46.526Z,1.67
2023-01-02T16:58:48.294Z,1.70
2023-01-02T17:03:49.891Z,1.75
2023-01-02T17:08:51.648Z,2.15
2023-01-02T17:13:53.162Z,2.00
2023-01-02T17:18:54.685Z,2.40
2023-01-02T17:23:56.280Z,2.05
2023-01-02T17:28:57.860Z,2.47
2023-01-02T17:34:00.970Z,2.63
2023-01-02T17:39:02.496Z,2.10
2023-01-02T17:44:04.200Z,2.40
2023-01-02T17:49:05.705Z,2.97
2023-01-02T17:54:07.239Z,2.83
2023-01-02T17:59:08.932Z,2.72
2023-01-02T18:04:10.378Z,2.50
2023-01-02T18:09:11.834Z,3.10
2023-01-02T18:14:21.944Z,4.80
2023-01-02T18:19:26.149Z,3.90
2023-01-02T18:24:30.592Z,2.20
2023-01-02T18:29:32.135Z,3.05
2023-01-02T18:34:54.715Z,2.90
2023-01-02T18:40:00.502Z,2.60
2023-01-02T18:45:12.203Z,4.93
2023-01-02T18:50:19.715Z,3.00
2023-01-02T19:00:31.987Z,2.53
2023-01-02T19:05:37.461Z,2.20
2023-01-02T19:10:42.615Z,2.20
2023-01-02T19:15:47.192Z,1.95
2023-01-02T19:21:08.187Z,1.80
2023-01-02T19:26:33.637Z,2.17
2023-01-02T19:31:51.924Z,2.08
2023-01-02T19:37:05.041Z,2.80
2023-01-02T19:42:07.670Z,2.42
2023-01-02T19:47:09.158Z,3.83
2023-01-02T19:52:11.494Z,2.72
2023-01-02T19:57:14.030Z,3.75
2023-01-02T20:02:17.977Z,2.20
2023-01-02T20:07:20.910Z,2.67
2023-01-02T20:12:22.515Z,2.58
2023-01-02T20:17:24.035Z,2.22
2023-01-02T20:22:26.770Z,3.15
2023-01-02T20:27:28.502Z,2.70
2023-01-02T20:32:29.985Z,2.13
2023-01-02T20:37:32.408Z,2.45
2023-01-02T20:42:33.913Z,2.35
2023-01-02T20:47:35.520Z,2.20
2023-01-02T20:52:38.438Z,2.55
2023-01-02T20:57:39.986Z,2.28
2023-01-02T21:02:41.654Z,2.30
2023-01-02T21:07:43.277Z,2.58
2023-01-02T21:12:44.739Z,2.00
2023-01-02T21:17:46.300Z,2.90
2023-01-02T21:22:47.797Z,2.00
2023-01-02T21:27:49.356Z,2.05
2023-01-02T21:32:50.864Z,2.03
2023-01-02T21:37:52.799Z,1.85
2023-01-02T21:42:54.485Z,1.92
2023-01-02T21:47:55.948Z,2.08
2023-01-02T21:52:57.474Z,2.00
2023-01-02T21:58:15.100Z,2.00
2023-01-02T22:03:16.998Z,2.22
2023-01-02T22:08:18.651Z,2.03
2023-01-02T22:13:20.123Z,2.38
2023-01-02T22:18:21.742Z,2.45
2023-01-02T22:23:23.213Z,2.25
2023-01-02T22:28:24.781Z,1.83
2023-01-02T22:33:26.364Z,2.22
2023-01-02T22:38:27.983Z,2.30
2023-01-02T22:43:35.780Z,2.60
2023-01-02T22:48:38.884Z,2.00
2023-01-02T22:53:40.852Z,3.08
2023-01-02T22:58:42.993Z,2.10
2023-01-02T23:03:46.856Z,2.60
2023-01-02T23:08:48.442Z,2.72
2023-01-02T23:13:56.298Z,2.47
2023-01-02T23:18:58.259Z,2.53
2023-01-02T23:24:00.449Z,2.70
2023-01-02T23:29:07.002Z,2.00
2023-01-02T23:34:11.915Z,3.25
2023-01-02T23:39:17.977Z,2.75
2023-01-02T23:44:20.390Z,2.60
2023-01-02T23:49:22.514Z,2.38
2023-01-02T23:54:24.193Z,2.80
2023-01-02T23:59:26.233Z,2.60
